Time;durP1;ratioP1;P1;durP2;ratioP2;P2;SDS_P1;SDS_P2;PMS_P1;PMS_P2;Temp;Humidity;BMP_temperature;BMP_pressure;BME280_temperature;BME280_humidity;BME280_pressure;Samples;Min_cycle;Max_cycle;Signal;HPM_P1;HPM_P2
2021/10/29 00:02:15;;;;;;;16.48;10.15;;;12.20;93.40;;;;;;5018048;28;20420;-88
2021/10/29 00:04:41;;;;;;;14.07;9.52;;;12.20;93.50;;;;;;5015967;28;20038;-89
2021/10/29 00:07:08;;;;;;;15.60;10.10;;;12.10;93.40;;;;;;5026921;28;20465;-89
2021/10/29 00:09:35;;;;;;;14.38;9.20;;;12.10;93.40;;;;;;5017943;28;20038;-90
2021/10/29 00:12:01;;;;;;;13.75;9.70;;;12.10;93.50;;;;;;5000987;28;20048;-89
2021/10/29 00:14:31;;;;;;;13.82;9.48;;;12.10;93.30;;;;;;5018023;28;20026;-90
2021/10/29 00:16:56;;;;;;;15.07;10.00;;;12.10;93.40;;;;;;5017243;28;20025;-89
2021/10/29 00:19:22;;;;;;;16.35;9.70;;;12.10;93.30;;;;;;5001450;28;20037;-87
2021/10/29 00:21:48;;;;;;;17.13;10.25;;;12.00;93.30;;;;;;5020659;28;20071;-90
2021/10/29 00:24:14;;;;;;;16.08;10.50;;;12.00;93.30;;;;;;5023701;28;20030;-90
2021/10/29 00:26:40;;;;;;;14.77;9.63;;;11.90;93.40;;;;;;5028774;28;20094;-90
2021/10/29 00:29:06;;;;;;;14.60;10.25;;;11.90;93.50;;;;;;5014830;28;20085;-89
2021/10/29 00:31:31;;;;;;;18.17;9.35;;;11.80;93.50;;;;;;5029707;28;20128;-91
2021/10/29 00:33:57;;;;;;;13.38;9.30;;;11.90;93.60;;;;;;5017833;28;20064;-90
2021/10/29 00:36:23;;;;;;;14.30;9.38;;;11.80;93.50;;;;;;5034243;28;20080;-89
2021/10/29 00:38:48;;;;;;;14.85;9.85;;;11.80;93.60;;;;;;5033973;28;20073;-90
2021/10/29 00:41:14;;;;;;;14.15;9.40;;;11.80;93.60;;;;;;5001538;28;20033;-89
2021/10/29 00:43:39;;;;;;;14.77;10.18;;;11.80;93.70;;;;;;5017558;28;20040;-90
2021/10/29 00:46:05;;;;;;;16.85;10.85;;;11.80;93.70;;;;;;5008180;28;20367;-89
2021/10/29 00:48:33;;;;;;;15.80;10.93;;;11.80;93.70;;;;;;5031159;28;20460;-89
2021/10/29 00:50:59;;;;;;;18.02;10.75;;;11.80;93.70;;;;;;5014464;28;20026;-89
2021/10/29 00:53:25;;;;;;;15.80;10.25;;;11.80;93.70;;;;;;5014434;28;20048;-88
2021/10/29 00:55:51;;;;;;;16.48;11.15;;;11.80;93.80;;;;;;5019801;28;20459;-89
2021/10/29 00:58:17;;;;;;;14.57;10.45;;;11.80;93.80;;;;;;5017182;28;20064;-90
2021/10/29 01:00:42;;;;;;;15.85;10.15;;;11.80;93.70;;;;;;5017205;28;20029;-90
2021/10/29 01:03:08;;;;;;;15.27;10.73;;;11.80;93.80;;;;;;5032173;28;20064;-90
2021/10/29 01:05:34;;;;;;;15.38;10.25;;;11.80;93.80;;;;;;5018683;28;20136;-89
2021/10/29 01:08:00;;;;;;;15.75;10.75;;;11.80;93.80;;;;;;5017846;28;20029;-90
2021/10/29 01:10:32;;;;;;;15.20;11.13;;;11.80;93.80;;;;;;5014260;28;20058;-90
2021/10/29 01:12:58;;;;;;;18.42;11.43;;;11.80;93.90;;;;;;4995817;28;20049;-89
2021/10/29 01:15:25;;;;;;;15.77;10.98;;;11.80;94.00;;;;;;5008935;28;20034;-90
2021/10/29 01:17:51;;;;;;;19.98;11.82;;;11.70;93.90;;;;;;5012689;28;20022;-91
2021/10/29 01:20:24;;;;;;;15.70;10.10;;;11.70;93.80;;;;;;4995005;28;20500;-88
2021/10/29 01:22:50;;;;;;;14.93;10.68;;;11.60;93.90;;;;;;4987742;28;20522;-90
2021/10/29 01:25:16;;;;;;;15.93;10.50;;;11.60;94.00;;;;;;4997557;28;20149;-89
2021/10/29 01:27:42;;;;;;;15.15;10.15;;;11.60;94.10;;;;;;5014631;28;20065;-89
2021/10/29 01:30:09;;;;;;;15.52;10.18;;;11.60;94.10;;;;;;4998562;28;20105;-90
2021/10/29 01:32:35;;;;;;;18.13;12.63;;;11.50;94.20;;;;;;4996501;28;20023;-89
2021/10/29 01:35:01;;;;;;;16.38;10.88;;;11.50;94.30;;;;;;4994868;28;20387;-89
2021/10/29 01:37:27;;;;;;;16.40;11.50;;;11.50;94.30;;;;;;5009845;28;20058;-90
2021/10/29 01:39:53;;;;;;;18.00;10.52;;;11.50;94.30;;;;;;5001962;28;20035;-89
2021/10/29 01:42:19;;;;;;;18.08;11.90;;;11.50;94.40;;;;;;5000069;28;20031;-90
2021/10/29 01:44:46;;;;;;;14.77;10.45;;;11.50;94.40;;;;;;5000004;28;20167;-89
2021/10/29 01:47:12;;;;;;;17.10;11.82;;;11.50;94.40;;;;;;5014646;28;20022;-89
2021/10/29 01:49:39;;;;;;;15.75;10.77;;;11.50;94.40;;;;;;4997622;28;20125;-89
2021/10/29 01:52:06;;;;;;;15.65;10.10;;;11.50;94.40;;;;;;5002717;28;20034;-90
2021/10/29 01:54:32;;;;;;;14.25;10.05;;;11.50;94.40;;;;;;4997343;28;20034;-89
2021/10/29 01:56:58;;;;;;;16.33;10.75;;;11.50;94.50;;;;;;4988338;28;20023;-90
2021/10/29 01:59:25;;;;;;;13.48;9.50;;;11.40;94.40;;;;;;4981201;28;20414;-90
2021/10/29 02:01:52;;;;;;;15.57;10.57;;;11.40;94.80;;;;;;5013903;28;20026;-88
2021/10/29 02:04:17;;;;;;;13.70;9.73;;;11.40;94.50;;;;;;4993891;28;20027;-90
2021/10/29 02:06:43;;;;;;;14.52;8.82;;;11.40;94.60;;;;;;4991935;28;20101;-90
2021/10/29 02:09:09;;;;;;;15.25;9.25;;;11.40;94.50;;;;;;4996077;28;20113;-90
2021/10/29 02:11:35;;;;;;;13.98;9.10;;;11.40;94.50;;;;;;5012858;28;20129;-89
2021/10/29 02:14:01;;;;;;;13.02;8.43;;;11.40;94.50;;;;;;5011365;28;20133;-89
2021/10/29 02:16:27;;;;;;;15.30;9.00;;;11.40;94.50;;;;;;5008056;28;20064;-90
2021/10/29 02:18:53;;;;;;;15.50;9.90;;;11.40;94.50;;;;;;5009204;28;20034;-90
2021/10/29 02:21:18;;;;;;;13.85;9.63;;;11.40;94.50;;;;;;5017203;28;20084;-90
2021/10/29 02:23:44;;;;;;;12.90;9.15;;;11.40;94.60;;;;;;5014043;28;20034;-90
2021/10/29 02:26:09;;;;;;;15.15;8.73;;;11.40;94.60;;;;;;4995020;28;20488;-90
2021/10/29 02:28:35;;;;;;;12.52;9.30;;;11.40;94.60;;;;;;4998842;28;20018;-90
2021/10/29 02:31:01;;;;;;;14.52;8.85;;;11.40;94.50;;;;;;5017233;28;20053;-91
2021/10/29 02:33:27;;;;;;;13.55;9.05;;;11.40;94.60;;;;;;5017411;28;20040;-89
2021/10/29 02:35:54;;;;;;;16.45;9.20;;;11.40;94.60;;;;;;5034882;28;20076;-90
2021/10/29 02:38:20;;;;;;;14.27;9.48;;;11.40;94.60;;;;;;5018152;28;20109;-88
2021/10/29 02:40:45;;;;;;;11.05;8.30;;;11.40;94.60;;;;;;5012281;28;20057;-89
2021/10/29 02:43:11;;;;;;;14.68;9.18;;;11.40;94.60;;;;;;4999021;28;20034;-89
2021/10/29 02:45:37;;;;;;;14.68;8.73;;;11.40;94.70;;;;;;5004164;28;20363;-90
2021/10/29 02:48:04;;;;;;;12.98;8.65;;;11.40;94.60;;;;;;5031048;28;20026;-87
2021/10/29 02:50:30;;;;;;;13.55;8.35;;;11.40;94.60;;;;;;5014254;28;20090;-90
2021/10/29 02:52:56;;;;;;;15.00;9.70;;;11.40;94.60;;;;;;5017261;28;20116;-91
2021/10/29 02:55:21;;;;;;;14.70;8.70;;;11.40;94.60;;;;;;5014642;28;20044;-89
2021/10/29 02:57:47;;;;;;;12.73;8.38;;;11.40;94.60;;;;;;4995462;28;20030;-90
2021/10/29 03:00:16;;;;;;;13.07;8.75;;;11.40;94.60;;;;;;5019473;28;20031;-90
2021/10/29 03:02:42;;;;;;;15.63;9.18;;;11.40;94.60;;;;;;5001016;28;20490;-90
2021/10/29 03:05:08;;;;;;;13.68;8.95;;;11.40;94.70;;;;;;5012728;28;20030;-90
2021/10/29 03:07:35;;;;;;;12.82;8.70;;;11.40;94.70;;;;;;4993924;28;20081;-90
2021/10/29 03:10:02;;;;;;;12.52;8.93;;;11.40;94.70;;;;;;4998949;28;20053;-90
2021/10/29 03:12:28;;;;;;;14.90;9.02;;;11.40;94.70;;;;;;5019783;28;20017;-90
2021/10/29 03:14:54;;;;;;;14.73;9.38;;;11.40;94.70;;;;;;5037339;28;20041;-91
2021/10/29 03:17:19;;;;;;;12.63;9.00;;;11.40;94.70;;;;;;5037180;28;20041;-90
2021/10/29 03:19:45;;;;;;;12.40;9.07;;;11.40;94.70;;;;;;5037096;28;20038;-90
2021/10/29 03:22:11;;;;;;;16.17;9.88;;;11.40;94.80;;;;;;5020224;28;20025;-90
2021/10/29 03:24:36;;;;;;;12.57;9.15;;;11.40;94.90;;;;;;5036520;28;20021;-90
2021/10/29 03:27:02;;;;;;;16.77;9.63;;;11.40;94.80;;;;;;5023644;28;20026;-90
2021/10/29 03:29:28;;;;;;;12.98;9.02;;;11.30;94.80;;;;;;5029593;28;20025;-90
2021/10/29 03:31:54;;;;;;;13.88;9.60;;;11.40;94.90;;;;;;5018810;28;20141;-90
2021/10/29 03:34:19;;;;;;;13.63;9.02;;;11.30;95.00;;;;;;5039456;28;20041;-92
2021/10/29 03:36:46;;;;;;;15.35;9.57;;;11.30;95.00;;;;;;5025151;28;20031;-90
2021/10/29 03:39:25;;;;;;;14.57;9.90;;;11.30;95.10;;;;;;5020504;28;20030;-89
2021/10/29 03:42:05;;;;;;;15.43;9.00;;;11.20;95.10;;;;;;5020366;28;20044;-91
2021/10/29 03:44:46;;;;;;;14.88;9.13;;;11.20;95.10;;;;;;5036211;28;20022;-90
2021/10/29 03:47:12;;;;;;;13.48;8.98;;;11.20;95.20;;;;;;5006655;28;20033;-91
2021/10/29 03:49:50;;;;;;;15.48;9.23;;;11.20;95.20;;;;;;5000638;28;20030;-91
2021/10/29 03:52:30;;;;;;;15.77;9.88;;;11.20;95.40;;;;;;5018641;28;20451;-91
2021/10/29 03:54:58;;;;;;;11.85;8.52;;;11.20;95.30;;;;;;5018242;28;20065;-91
2021/10/29 03:57:25;;;;;;;14.45;9.32;;;11.20;95.40;;;;;;5035263;28;20026;-90
2021/10/29 03:59:52;;;;;;;15.55;9.20;;;11.10;95.40;;;;;;5016503;28;20025;-91
2021/10/29 04:02:19;;;;;;;15.30;10.20;;;11.20;95.40;;;;;;4999044;28;20079;-91
2021/10/29 04:04:45;;;;;;;15.05;9.68;;;11.10;95.50;;;;;;5036824;28;20068;-91
2021/10/29 04:07:11;;;;;;;12.63;9.82;;;11.10;95.50;;;;;;5007487;28;20084;-90
2021/10/29 04:09:37;;;;;;;13.50;8.60;;;11.10;95.60;;;;;;5017652;28;20095;-90
2021/10/29 04:12:03;;;;;;;14.02;9.13;;;11.10;95.60;;;;;;5020069;28;20462;-91
2021/10/29 04:14:29;;;;;;;14.50;8.82;;;11.10;95.60;;;;;;5018342;28;20037;-90
2021/10/29 04:16:55;;;;;;;13.45;9.32;;;11.10;95.60;;;;;;5018189;28;20092;-90
2021/10/29 04:19:21;;;;;;;16.30;9.88;;;11.10;95.60;;;;;;5017490;28;20498;-91
2021/10/29 04:21:47;;;;;;;12.63;8.48;;;11.10;95.60;;;;;;5021466;28;20030;-91
2021/10/29 04:24:13;;;;;;;14.35;9.15;;;11.10;95.70;;;;;;5036009;28;20037;-91
2021/10/29 04:26:39;;;;;;;11.40;8.15;;;11.10;95.70;;;;;;5035767;28;20026;-91
2021/10/29 04:29:13;;;;;;;17.05;9.82;;;11.10;95.80;;;;;;5030596;28;20137;-89
2021/10/29 04:31:50;;;;;;;17.65;9.23;;;11.10;95.90;;;;;;4998625;28;20018;-91
2021/10/29 04:34:17;;;;;;;14.95;8.82;;;11.10;95.90;;;;;;4997874;28;20033;-90
2021/10/29 04:36:43;;;;;;;12.48;8.52;;;11.10;96.10;;;;;;5018152;28;20053;-91
2021/10/29 04:39:12;;;;;;;15.93;9.55;;;11.10;95.90;;;;;;5017803;28;20151;-91
2021/10/29 04:41:39;;;;;;;16.20;9.23;;;11.10;95.90;;;;;;5017296;28;20029;-91
2021/10/29 04:44:05;;;;;;;15.07;9.00;;;11.10;95.80;;;;;;5018226;28;20022;-91
2021/10/29 04:46:31;;;;;;;14.15;9.32;;;11.10;95.80;;;;;;5002051;28;20034;-91
2021/10/29 04:48:57;;;;;;;13.50;9.10;;;11.10;95.90;;;;;;5018299;28;20083;-89
2021/10/29 04:51:24;;;;;;;15.60;9.63;;;11.10;96.00;;;;;;5025662;28;20052;-91
2021/10/29 04:53:49;;;;;;;14.13;9.55;;;11.10;95.90;;;;;;5001020;28;20044;-90
2021/10/29 04:56:15;;;;;;;12.15;8.80;;;11.10;95.90;;;;;;5034024;28;20029;-91
2021/10/29 04:58:41;;;;;;;13.30;9.30;;;11.10;95.90;;;;;;5034068;28;20021;-91
2021/10/29 05:01:06;;;;;;;12.93;9.20;;;11.10;96.00;;;;;;4990085;28;20036;-91
2021/10/29 05:03:32;;;;;;;12.45;8.10;;;11.10;96.00;;;;;;5002623;28;20036;-91
2021/10/29 05:05:58;;;;;;;13.25;8.80;;;11.10;96.00;;;;;;5033269;28;20034;-89
2021/10/29 05:08:24;;;;;;;12.63;9.43;;;11.10;96.00;;;;;;5034371;28;20034;-91
2021/10/29 05:10:49;;;;;;;13.70;8.52;;;11.10;96.00;;;;;;5001419;28;20076;-92
2021/10/29 05:13:15;;;;;;;14.60;9.00;;;11.10;95.90;;;;;;5017988;28;20030;-90
2021/10/29 05:15:41;;;;;;;12.18;8.32;;;11.10;96.00;;;;;;5001873;28;20048;-91
2021/10/29 05:18:12;;;;;;;13.55;9.02;;;11.10;95.90;;;;;;5035259;28;20097;-92
2021/10/29 05:20:38;;;;;;;13.48;9.77;;;11.20;95.90;;;;;;5020058;28;20499;-91
2021/10/29 05:23:04;;;;;;;12.95;9.00;;;11.10;96.00;;;;;;5014070;28;20034;-90
2021/10/29 05:25:29;;;;;;;14.10;9.07;;;11.10;96.10;;;;;;5017992;28;20046;-87
2021/10/29 05:27:55;;;;;;;13.43;9.55;;;11.10;96.00;;;;;;5018146;28;20014;-91
2021/10/29 05:30:21;;;;;;;13.88;9.07;;;11.10;96.00;;;;;;5018387;28;20036;-90
2021/10/29 05:32:46;;;;;;;14.52;9.02;;;11.10;96.00;;;;;;5035133;28;20037;-90
2021/10/29 05:35:12;;;;;;;15.73;9.80;;;11.10;95.90;;;;;;5034197;28;20060;-90
2021/10/29 05:37:38;;;;;;;15.98;9.95;;;11.10;96.00;;;;;;5035124;28;20103;-91
2021/10/29 05:40:06;;;;;;;14.52;10.25;;;11.10;96.10;;;;;;5018733;28;20029;-90
2021/10/29 05:42:33;;;;;;;14.27;9.27;;;11.00;96.10;;;;;;5013717;28;20016;-90
2021/10/29 05:45:00;;;;;;;16.50;10.30;;;11.00;96.10;;;;;;5041153;28;20029;-91
2021/10/29 05:47:26;;;;;;;15.80;10.10;;;11.00;96.10;;;;;;5046512;28;20033;-88
2021/10/29 05:49:53;;;;;;;14.20;9.43;;;11.00;96.10;;;;;;5033887;28;20148;-91
2021/10/29 05:52:23;;;;;;;14.75;10.40;;;11.00;96.10;;;;;;5046290;28;20026;-92
2021/10/29 05:57:20;;;;;;;17.80;10.40;;;11.00;96.10;;;;;;5044304;28;20057;-88
2021/10/29 05:59:47;;;;;;;17.33;11.35;;;11.00;96.20;;;;;;5024488;28;20117;-88
2021/10/29 06:02:12;;;;;;;15.13;10.18;;;11.00;96.10;;;;;;5015624;28;20026;-89
2021/10/29 06:04:38;;;;;;;14.30;9.98;;;11.00;96.20;;;;;;5028503;28;20083;-89
2021/10/29 06:07:04;;;;;;;15.43;9.98;;;10.90;96.40;;;;;;5038593;28;20076;-89
2021/10/29 06:09:30;;;;;;;14.73;10.18;;;10.90;96.20;;;;;;5016532;28;20026;-89
2021/10/29 06:11:57;;;;;;;15.77;9.60;;;10.90;96.20;;;;;;5032415;28;20057;-90
2021/10/29 06:14:23;;;;;;;14.70;9.65;;;10.90;96.30;;;;;;5023722;28;20473;-90
2021/10/29 06:16:49;;;;;;;16.45;9.38;;;10.90;96.30;;;;;;5036143;28;20156;-89
2021/10/29 06:19:15;;;;;;;15.23;8.57;;;10.90;96.30;;;;;;4986746;28;20496;-89
2021/10/29 06:22:00;;;;;;;14.45;9.02;;;10.90;96.30;;;;;;5019377;28;20018;-89
2021/10/29 06:24:27;;;;;;;16.80;9.43;;;10.90;96.30;;;;;;5020702;28;20086;-89
2021/10/29 06:27:00;;;;;;;15.18;9.70;;;10.90;96.20;;;;;;5020456;28;20056;-89
2021/10/29 06:29:26;;;;;;;15.63;10.52;;;10.90;96.30;;;;;;5020539;28;20032;-88
2021/10/29 06:31:52;;;;;;;14.82;9.98;;;10.90;96.40;;;;;;5019752;28;20021;-89
2021/10/29 06:34:18;;;;;;;15.23;10.43;;;10.90;96.30;;;;;;5021407;28;20044;-89
2021/10/29 06:36:45;;;;;;;14.85;9.93;;;10.90;96.30;;;;;;5017217;28;20026;-89
2021/10/29 06:39:11;;;;;;;18.52;10.13;;;10.90;96.30;;;;;;5033039;28;20057;-90
2021/10/29 06:41:37;;;;;;;20.05;11.80;;;10.90;96.30;;;;;;5020009;28;20022;-90
2021/10/29 06:44:31;;;;;;;14.65;10.15;;;10.90;96.40;;;;;;5005221;28;20039;-89
2021/10/29 06:47:20;;;;;;;17.17;10.35;;;10.90;96.40;;;;;;5023038;28;20466;-89
2021/10/29 06:59:11;;;;;;;15.77;10.38;;;10.90;96.50;;;;;;4999169;28;20091;-88
2021/10/29 07:03:26;;;;;;;15.55;9.98;;;10.80;96.70;;;;;;5055236;28;20029;-88
2021/10/29 07:41:43;;;;;;;18.67;9.77;;;11.00;96.80;;;;;;5030861;28;20056;-93
2021/10/29 07:44:15;;;;;;;14.13;8.52;;;11.00;96.90;;;;;;5021196;28;20067;-92
2021/10/29 07:46:42;;;;;;;13.90;8.82;;;11.10;96.90;;;;;;5007198;28;20150;-92
2021/10/29 07:49:08;;;;;;;14.60;8.48;;;11.10;96.80;;;;;;5038008;28;20029;-93
2021/10/29 07:51:37;;;;;;;14.45;8.63;;;11.20;96.70;;;;;;5037703;28;20047;-93
2021/10/29 07:54:03;;;;;;;14.80;9.30;;;11.20;96.70;;;;;;5037825;28;20029;-93
2021/10/29 07:56:29;;;;;;;14.43;8.57;;;11.20;96.60;;;;;;5016489;28;20225;-93
2021/10/29 07:58:55;;;;;;;17.23;8.40;;;11.20;96.70;;;;;;5030643;28;20072;-93
2021/10/29 08:01:21;;;;;;;15.65;8.82;;;11.30;96.60;;;;;;5020599;28;20500;-92
2021/10/29 08:03:46;;;;;;;15.70;8.75;;;11.40;96.60;;;;;;5000860;28;20124;-92
2021/10/29 08:06:12;;;;;;;14.82;9.13;;;11.40;96.60;;;;;;5037356;28;20351;-92
2021/10/29 08:08:38;;;;;;;13.30;8.57;;;11.40;96.40;;;;;;5017462;28;20360;-93
2021/10/29 08:11:04;;;;;;;12.07;8.75;;;11.50;96.50;;;;;;4985327;28;20069;-93
2021/10/29 08:13:29;;;;;;;12.85;8.77;;;11.50;96.40;;;;;;5023964;28;20041;-92
2021/10/29 08:15:59;;;;;;;13.05;8.93;;;11.60;96.30;;;;;;4996844;28;20033;-92
2021/10/29 08:18:25;;;;;;;14.25;8.38;;;11.60;96.30;;;;;;5021238;28;20104;-92
2021/10/29 08:20:52;;;;;;;13.95;9.18;;;11.70;96.20;;;;;;5012241;28;20041;-93
2021/10/29 08:23:18;;;;;;;17.40;9.27;;;11.70;96.30;;;;;;5032362;28;20044;-93
2021/10/29 08:25:44;;;;;;;13.52;8.35;;;11.80;96.20;;;;;;5017455;28;20022;-93
2021/10/29 08:28:10;;;;;;;12.73;8.07;;;11.80;96.10;;;;;;5034513;28;20113;-93
2021/10/29 08:30:36;;;;;;;13.23;8.13;;;11.90;96.20;;;;;;5019389;28;20463;-93
2021/10/29 08:33:10;;;;;;;14.15;8.35;;;11.90;96.40;;;;;;5046218;28;20128;-93
2021/10/29 08:35:48;;;;;;;14.95;8.88;;;12.00;96.00;;;;;;5032135;28;20021;-94
2021/10/29 08:38:16;;;;;;;16.27;9.30;;;12.00;95.80;;;;;;5046378;28;20042;-94
2021/10/29 08:40:43;;;;;;;11.90;8.27;;;12.10;95.80;;;;;;5022259;28;20402;-93
2021/10/29 08:43:09;;;;;;;13.90;8.25;;;12.10;95.60;;;;;;5039160;28;20021;-93
2021/10/29 08:45:34;;;;;;;14.57;9.13;;;12.20;95.80;;;;;;5024221;28;20037;-93
2021/10/29 08:48:01;;;;;;;12.80;8.98;;;12.20;95.60;;;;;;5015653;28;20021;-94
2021/10/29 08:50:27;;;;;;;14.07;8.23;;;12.30;95.70;;;;;;5005124;28;20026;-93
2021/10/29 08:52:54;;;;;;;12.10;8.27;;;12.40;95.40;;;;;;5029304;28;20078;-93
2021/10/29 08:55:26;;;;;;;13.32;8.35;;;12.40;95.50;;;;;;5021049;28;20108;-92
2021/10/29 09:01:19;;;;;;;13.00;8.48;;;12.60;95.30;;;;;;5051010;28;20039;-92
2021/10/29 09:03:47;;;;;;;13.57;8.30;;;12.60;95.00;;;;;;5017540;28;20041;-94
2021/10/29 09:31:23;;;;;;;13.30;8.55;;;13.00;94.80;;;;;;5037122;28;20091;-92
2021/10/29 09:34:15;;;;;;;11.95;8.73;;;13.40;94.30;;;;;;4993493;28;20034;-92
2021/10/29 09:36:45;;;;;;;12.07;7.95;;;13.50;94.20;;;;;;5009360;28;20098;-93
2021/10/29 09:39:14;;;;;;;14.63;7.88;;;13.60;94.20;;;;;;5028657;28;20020;-90
2021/10/29 09:41:42;;;;;;;15.25;8.52;;;13.70;93.80;;;;;;5031268;28;20044;-88
2021/10/29 09:44:15;;;;;;;11.98;8.20;;;13.70;93.60;;;;;;5022207;28;20025;-89
2021/10/29 09:46:56;;;;;;;11.48;7.40;;;13.80;93.70;;;;;;5044429;28;20032;-90
2021/10/29 09:49:29;;;;;;;12.10;7.93;;;13.90;93.60;;;;;;5039171;28;20104;-90
2021/10/29 09:55:15;;;;;;;14.32;8.15;;;14.00;93.40;;;;;;4986932;28;20046;-91
2021/10/29 09:57:41;;;;;;;12.02;8.00;;;14.20;93.20;;;;;;5034579;28;20017;-90
2021/10/29 10:00:10;;;;;;;13.20;7.97;;;14.20;92.80;;;;;;5023474;28;20387;-90
2021/10/29 10:02:40;;;;;;;11.23;7.78;;;14.30;92.90;;;;;;5036415;28;20028;-91
2021/10/29 10:05:07;;;;;;;15.20;7.70;;;14.30;92.70;;;;;;5039733;28;20048;-91
2021/10/29 10:07:35;;;;;;;12.93;8.07;;;14.40;92.60;;;;;;5039382;28;20017;-91
2021/10/29 10:10:02;;;;;;;10.75;7.07;;;14.50;92.60;;;;;;5057429;28;20076;-91
2021/10/29 10:12:34;;;;;;;10.63;7.55;;;14.60;92.70;;;;;;5028513;28;20060;-90
2021/10/29 10:15:03;;;;;;;10.82;7.20;;;14.70;92.60;;;;;;5003087;28;20463;-92
2021/10/29 10:17:29;;;;;;;13.10;7.82;;;14.70;92.50;;;;;;5025359;28;20037;-92
2021/10/29 10:19:56;;;;;;;12.52;7.55;;;14.80;91.90;;;;;;5018705;28;20067;-90
2021/10/29 10:22:26;;;;;;;10.13;7.10;;;14.90;92.30;;;;;;5003694;28;20128;-91
2021/10/29 10:25:00;;;;;;;11.75;6.93;;;15.00;92.30;;;;;;5006721;23;20420;-86
2021/10/29 10:41:09;;;;;;;8.88;5.38;;;15.50;90.60;;;;;;4930493;28;20126;-85
2021/10/29 10:44:07;;;;;;;11.18;5.18;;;15.60;90.90;;;;;;4914994;28;20089;-85
2021/10/29 10:46:24;;;;;;;9.10;5.70;;;15.70;90.50;;;;;;4940083;28;20408;-84
2021/10/29 10:51:33;;;;;;;10.10;6.20;;;15.90;89.60;;;;;;4943999;28;20028;-85
2021/10/29 10:59:42;;;;;;;14.55;6.18;;;16.10;89.20;;;;;;4943872;28;20038;-85
2021/10/29 11:02:44;;;;;;;9.25;5.15;;;16.10;89.10;;;;;;4952730;28;20127;-84
2021/10/29 11:10:24;;;;;;;8.57;5.57;;;16.30;88.00;;;;;;4937116;28;20051;-85
2021/10/29 11:12:50;;;;;;;10.60;5.70;;;16.40;89.00;;;;;;4902966;28;20564;-86
2021/10/29 11:15:19;;;;;;;9.52;5.55;;;16.40;89.00;;;;;;4933939;28;20024;-84
2021/10/29 11:17:52;;;;;;;9.45;5.68;;;16.50;87.70;;;;;;4993174;28;20027;-84
2021/10/29 11:20:38;;;;;;;11.48;5.65;;;16.50;87.90;;;;;;4934126;29;20030;-84
2021/10/29 11:23:06;;;;;;;9.82;5.43;;;16.60;87.60;;;;;;4945673;28;20028;-83
2021/10/29 11:25:53;;;;;;;8.98;5.65;;;16.60;87.60;;;;;;4917643;28;20043;-85
2021/10/29 11:28:27;;;;;;;9.73;5.43;;;16.60;88.00;;;;;;4943686;28;20060;-84
2021/10/29 11:30:55;;;;;;;11.23;5.68;;;16.70;88.10;;;;;;4929783;28;20043;-83
2021/10/29 11:33:22;;;;;;;10.23;6.00;;;16.70;88.40;;;;;;4978875;28;20024;-84
2021/10/29 11:36:02;;;;;;;10.27;5.45;;;16.80;87.80;;;;;;4928825;28;20019;-84
2021/10/29 11:38:33;;;;;;;12.45;6.35;;;16.80;87.30;;;;;;4947917;28;20028;-84
2021/10/29 11:41:00;;;;;;;7.35;5.25;;;16.90;88.30;;;;;;4934560;28;20378;-84
2021/10/29 11:43:30;;;;;;;9.43;5.45;;;16.90;88.20;;;;;;4919412;28;20115;-84
2021/10/29 11:46:03;;;;;;;13.73;6.00;;;16.90;88.30;;;;;;4936259;28;20022;-85
2021/10/29 11:48:29;;;;;;;10.18;6.32;;;16.90;86.20;;;;;;4936739;28;20473;-85
2021/10/29 11:51:15;;;;;;;9.85;6.32;;;17.00;87.10;;;;;;4892164;28;20036;-85
2021/10/29 12:07:17;;;;;;;9.00;5.57;;;17.10;87.20;;;;;;4933072;28;20497;-86
2021/10/29 12:09:52;;;;;;;8.13;5.82;;;17.20;86.70;;;;;;4960652;28;20381;-85
2021/10/29 12:12:21;;;;;;;11.05;6.10;;;17.20;86.90;;;;;;4924712;28;20460;-85
2021/10/29 12:14:50;;;;;;;9.82;6.22;;;17.20;86.70;;;;;;4920656;28;20028;-86
2021/10/29 12:17:31;;;;;;;14.00;6.65;;;17.20;86.10;;;;;;4933502;28;20023;-85
2021/10/29 12:20:00;;;;;;;8.82;6.18;;;17.20;85.90;;;;;;4926743;28;20031;-86
2021/10/29 12:28:12;;;;;;;8.50;6.25;;;17.30;87.60;;;;;;4991214;28;20042;-84
2021/10/29 12:30:59;;;;;;;11.73;6.72;;;17.40;86.50;;;;;;4988727;28;20526;-84
2021/10/29 13:01:32;;;;;;;13.18;7.95;;;18.00;86.50;;;;;;4992583;28;20045;-85
2021/10/29 13:04:05;;;;;;;12.50;7.07;;;17.90;85.00;;;;;;4982117;28;20034;-86
2021/10/29 13:06:55;;;;;;;12.73;7.13;;;17.90;85.40;;;;;;4992752;28;20023;-85
2021/10/29 13:09:22;;;;;;;12.88;6.85;;;18.10;85.50;;;;;;4992588;28;20033;-85
2021/10/29 13:11:54;;;;;;;10.80;6.35;;;18.10;85.30;;;;;;4992667;28;20022;-85
2021/10/29 13:14:32;;;;;;;10.07;6.28;;;18.10;85.80;;;;;;4999974;28;20050;-85
2021/10/29 13:16:59;;;;;;;10.27;6.45;;;18.10;85.40;;;;;;4999158;28;20026;-85
2021/10/29 13:19:38;;;;;;;9.55;5.72;;;18.20;85.50;;;;;;4999013;28;20034;-85
2021/10/29 13:55:25;;;;;;;10.20;5.70;;;18.50;84.30;;;;;;4923208;29;20037;-88
2021/10/29 14:35:36;;;;;;;9.07;5.50;;;18.50;85.10;;;;;;5009971;28;20029;-88
2021/10/29 14:40:57;;;;;;;12.70;5.28;;;18.50;85.00;;;;;;4947867;28;20039;-88
2021/10/29 14:43:50;;;;;;;11.30;5.03;;;18.40;84.80;;;;;;4921170;28;20035;-88
2021/10/29 14:49:02;;;;;;;8.98;4.78;;;18.30;85.40;;;;;;4927554;28;20028;-88
2021/10/29 15:07:33;;;;;;;13.68;5.03;;;18.30;86.90;;;;;;4925594;28;20531;-88
2021/10/29 15:45:11;;;;;;;7.15;4.53;;;18.00;88.40;;;;;;4986304;28;20094;-89
2021/10/29 15:47:59;;;;;;;7.68;4.10;;;18.00;88.50;;;;;;4920141;28;20029;-89
2021/10/29 15:50:31;;;;;;;8.38;4.07;;;18.00;88.40;;;;;;5004702;28;20029;-89
2021/10/29 15:52:57;;;;;;;7.50;3.70;;;18.00;88.80;;;;;;4929920;28;20023;-89
2021/10/29 15:55:38;;;;;;;6.80;3.83;;;18.00;88.70;;;;;;4905557;28;20036;-91
2021/10/29 16:00:49;;;;;;;7.13;3.83;;;18.00;88.60;;;;;;4984117;28;20059;-90
2021/10/29 16:03:29;;;;;;;6.13;3.60;;;18.00;88.60;;;;;;4940083;28;20033;-91
2021/10/29 16:17:10;;;;;;;4.75;2.85;;;17.80;86.90;;;;;;4938192;28;20037;-90
2021/10/29 16:19:37;;;;;;;5.93;2.58;;;17.80;86.80;;;;;;4993769;28;20463;-90
2021/10/29 16:22:10;;;;;;;5.20;2.33;;;17.80;86.30;;;;;;4893243;28;20098;-88
2021/10/29 16:27:35;;;;;;;5.93;2.20;;;17.80;86.80;;;;;;4925278;28;20039;-90
2021/10/29 16:30:01;;;;;;;5.60;2.42;;;17.80;86.90;;;;;;4959306;28;20039;-90
2021/10/29 16:32:49;;;;;;;4.88;2.40;;;17.80;86.60;;;;;;4917767;28;20366;-90
2021/10/29 16:35:13;;;;;;;5.13;2.35;;;17.70;86.50;;;;;;4995327;28;20036;-90
2021/10/29 16:37:39;;;;;;;5.97;3.22;;;17.80;86.50;;;;;;4924093;28;20027;-90
2021/10/29 16:40:05;;;;;;;6.43;2.75;;;17.80;87.00;;;;;;4935469;28;20067;-90
2021/10/29 16:42:31;;;;;;;4.47;2.92;;;17.80;87.50;;;;;;4886482;28;20028;-89
2021/10/29 16:44:56;;;;;;;6.47;2.70;;;17.80;89.60;;;;;;4886974;28;20063;-90
2021/10/29 16:47:22;;;;;;;6.85;2.70;;;17.70;90.50;;;;;;4923265;28;20028;-90
2021/10/29 16:49:49;;;;;;;4.95;2.40;;;17.60;91.00;;;;;;4987942;28;20012;-91
2021/10/29 16:52:14;;;;;;;5.97;3.00;;;17.50;91.50;;;;;;4931742;29;20023;-91
2021/10/29 16:54:40;;;;;;;6.57;2.83;;;17.40;91.80;;;;;;4940705;28;20484;-89
2021/10/29 16:57:06;;;;;;;4.88;2.55;;;17.30;92.30;;;;;;4960843;28;20456;-90
2021/10/29 16:59:31;;;;;;;5.95;2.88;;;17.20;92.80;;;;;;4923314;28;20485;-88
2021/10/29 17:01:57;;;;;;;6.45;2.58;;;17.10;93.50;;;;;;4906579;28;20035;-89
2021/10/29 17:04:23;;;;;;;6.95;3.17;;;16.90;94.20;;;;;;4928723;28;20070;-88
2021/10/29 17:06:48;;;;;;;6.15;3.05;;;16.80;94.50;;;;;;4901174;28;20033;-89
2021/10/29 17:09:14;;;;;;;5.90;3.30;;;16.60;94.90;;;;;;4931253;28;20382;-89
2021/10/29 17:11:40;;;;;;;6.97;3.22;;;16.40;95.40;;;;;;4977097;28;20059;-89
2021/10/29 17:14:05;;;;;;;5.30;3.08;;;16.30;95.90;;;;;;4988238;28;20027;-89
2021/10/29 17:16:31;;;;;;;6.68;3.38;;;16.20;96.20;;;;;;4940772;28;20111;-89
2021/10/29 17:18:57;;;;;;;10.38;3.58;;;16.10;96.60;;;;;;4931614;28;20082;-89
2021/10/29 17:21:23;;;;;;;5.80;3.15;;;16.00;97.00;;;;;;4914057;28;20122;-90
2021/10/29 17:23:48;;;;;;;7.18;3.20;;;15.90;97.10;;;;;;4930587;28;20482;-89
2021/10/29 17:26:14;;;;;;;5.03;2.80;;;15.80;97.30;;;;;;4892147;28;20059;-89
2021/10/29 17:28:40;;;;;;;8.57;3.10;;;15.80;97.40;;;;;;4914305;29;20052;-88
2021/10/29 17:31:05;;;;;;;5.70;2.88;;;15.80;97.40;;;;;;4899577;28;20067;-90
2021/10/29 17:33:31;;;;;;;5.93;2.58;;;15.70;97.50;;;;;;4985340;28;20478;-90
2021/10/29 17:35:57;;;;;;;6.35;2.60;;;15.70;97.60;;;;;;4918873;28;20028;-91
2021/10/29 17:38:23;;;;;;;4.75;2.30;;;15.60;97.40;;;;;;4897628;28;20096;-90
2021/10/29 17:40:49;;;;;;;4.57;2.03;;;15.60;97.60;;;;;;4922231;28;20095;-89
2021/10/29 17:43:14;;;;;;;3.55;2.00;;;15.50;97.30;;;;;;5003576;28;20030;-90
2021/10/29 17:45:43;;;;;;;4.32;2.55;;;15.50;97.50;;;;;;4928683;29;20043;-89